Time;durP1;ratioP1;P1;durP2;ratioP2;P2;SDS_P1;SDS_P2;PMS_P1;PMS_P2;Temp;Humidity;BMP_temperature;BMP_pressure;BME280_temperature;BME280_humidity;BME280_pressure;Samples;Min_cycle;Max_cycle;Signal;HPM_P1;HPM_P2
2021/05/26 00:00:00;;;;;;;7.53;2.40;;;10.20;99.90;;;;;;5116072;27;20548;-66
2021/05/26 00:02:26;;;;;;;4.88;2.67;;;10.20;99.90;;;;;;5135276;27;20176;-67
2021/05/26 00:04:52;;;;;;;3.03;2.67;;;10.20;99.90;;;;;;5135189;27;20183;-67
2021/05/26 00:07:18;;;;;;;4.07;2.50;;;10.20;99.90;;;;;;5134550;27;20191;-65
2021/05/26 00:09:44;;;;;;;6.95;2.45;;;10.20;99.90;;;;;;5134794;27;20689;-66
2021/05/26 00:12:12;;;;;;;3.47;2.50;;;10.20;99.90;;;;;;5134945;27;20183;-66
2021/05/26 00:14:39;;;;;;;3.17;2.42;;;10.10;99.90;;;;;;5134602;27;20204;-66
2021/05/26 00:17:05;;;;;;;7.70;2.25;;;10.20;99.90;;;;;;5134916;27;20187;-67
2021/05/26 00:19:31;;;;;;;4.15;2.33;;;10.10;99.90;;;;;;5134098;27;20184;-66
2021/05/26 00:21:58;;;;;;;4.32;2.75;;;10.20;99.90;;;;;;5099462;27;20501;-66
2021/05/26 00:24:24;;;;;;;5.72;2.40;;;10.20;99.90;;;;;;5134835;27;20184;-66
2021/05/26 00:26:50;;;;;;;4.68;1.90;;;10.20;99.90;;;;;;5134095;27;20659;-67
2021/05/26 00:29:16;;;;;;;3.35;2.17;;;10.20;99.90;;;;;;5134521;27;20274;-66
2021/05/26 00:31:42;;;;;;;3.42;2.40;;;10.20;99.90;;;;;;5134396;27;20687;-66
2021/05/26 00:34:08;;;;;;;3.78;2.30;;;10.20;99.90;;;;;;5133687;27;20238;-66
2021/05/26 00:36:34;;;;;;;3.17;2.28;;;10.20;99.90;;;;;;5133778;27;20540;-67
2021/05/26 00:39:00;;;;;;;3.58;2.33;;;10.20;99.90;;;;;;5133192;27;20187;-66
2021/05/26 00:41:28;;;;;;;2.03;1.73;;;10.20;99.90;;;;;;5133345;27;20176;-66
2021/05/26 00:43:54;;;;;;;2.15;1.40;;;10.20;99.90;;;;;;5134066;27;20168;-65
2021/05/26 00:46:20;;;;;;;4.93;1.02;;;10.00;99.90;;;;;;5114660;27;20196;-64
2021/05/26 00:48:46;;;;;;;1.70;0.93;;;9.90;99.90;;;;;;5133786;27;20191;-63
2021/05/26 00:51:12;;;;;;;6.32;0.95;;;9.80;99.90;;;;;;5133432;27;20524;-64
2021/05/26 00:53:38;;;;;;;1.77;0.98;;;9.80;99.90;;;;;;5133244;27;20176;-63
2021/05/26 00:56:05;;;;;;;2.30;1.40;;;9.80;99.90;;;;;;5134259;27;20176;-60
2021/05/26 00:58:32;;;;;;;2.40;1.30;;;9.80;99.90;;;;;;5132968;27;20176;-62
2021/05/26 01:00:58;;;;;;;6.90;1.45;;;9.80;99.90;;;;;;5115035;27;20196;-61
2021/05/26 01:03:25;;;;;;;2.75;1.55;;;9.80;99.90;;;;;;5133505;27;20172;-61
2021/05/26 01:05:51;;;;;;;3.58;1.30;;;9.80;99.90;;;;;;5133378;27;20557;-60
2021/05/26 01:08:17;;;;;;;2.80;1.38;;;9.80;99.90;;;;;;5133839;27;20180;-61
2021/05/26 01:10:43;;;;;;;5.20;1.38;;;9.70;99.90;;;;;;5133080;27;20176;-61
2021/05/26 01:13:10;;;;;;;1.40;0.90;;;9.60;99.90;;;;;;5132848;27;20203;-61
2021/05/26 01:15:36;;;;;;;2.17;0.90;;;9.60;99.90;;;;;;5133211;27;20203;-61
2021/05/26 01:18:18;;;;;;;1.23;0.65;;;9.40;99.90;;;;;;5133788;27;20180;-61
2021/05/26 01:20:44;;;;;;;1.45;0.80;;;9.30;99.90;;;;;;5133508;27;20168;-61
2021/05/26 01:23:10;;;;;;;2.78;0.70;;;9.20;99.90;;;;;;5133630;27;20180;-61
2021/05/26 01:25:36;;;;;;;7.75;1.27;;;9.10;99.90;;;;;;5133295;27;20616;-61
2021/05/26 01:28:02;;;;;;;1.85;0.80;;;9.10;99.90;;;;;;5114539;27;20528;-61
2021/05/26 01:30:28;;;;;;;2.38;1.00;;;9.00;99.90;;;;;;5133558;27;20540;-61
2021/05/26 01:32:54;;;;;;;7.38;1.10;;;9.10;99.90;;;;;;5132027;27;20176;-61
2021/05/26 01:35:21;;;;;;;1.55;0.75;;;9.10;99.90;;;;;;5132860;27;20207;-60
2021/05/26 01:37:47;;;;;;;3.95;1.35;;;9.10;99.90;;;;;;5132363;27;20632;-60
2021/05/26 01:40:16;;;;;;;2.47;1.17;;;9.10;99.90;;;;;;5127854;27;20190;-61
2021/05/26 01:42:42;;;;;;;4.10;1.08;;;9.10;99.90;;;;;;5132449;27;20176;-61
2021/05/26 01:45:10;;;;;;;2.47;1.38;;;9.10;99.90;;;;;;5131444;27;20177;-61
2021/05/26 01:47:36;;;;;;;2.97;1.88;;;9.10;99.90;;;;;;5132481;27;20176;-61
2021/05/26 01:50:03;;;;;;;6.88;1.38;;;9.10;99.90;;;;;;5132941;27;20184;-60
2021/05/26 01:52:29;;;;;;;3.35;1.40;;;9.10;99.90;;;;;;5129527;27;20195;-60
2021/05/26 01:54:55;;;;;;;2.15;1.10;;;9.10;99.90;;;;;;5137377;27;20564;-61
2021/05/26 01:57:21;;;;;;;1.38;0.90;;;9.10;99.90;;;;;;5141165;27;20175;-62
2021/05/26 01:59:47;;;;;;;2.42;1.20;;;9.10;99.90;;;;;;5135720;27;20172;-60
2021/05/26 02:02:13;;;;;;;1.67;1.00;;;9.10;99.90;;;;;;5132539;27;20175;-60
2021/05/26 02:04:39;;;;;;;1.73;0.90;;;9.10;99.90;;;;;;5131276;27;20544;-60
2021/05/26 02:07:11;;;;;;;1.92;1.20;;;9.00;99.90;;;;;;5134061;27;20187;-61
2021/05/26 02:09:38;;;;;;;2.45;1.20;;;9.00;99.90;;;;;;5135191;27;20172;-60
2021/05/26 02:12:23;;;;;;;1.48;1.15;;;9.00;99.90;;;;;;5116179;27;20613;-61
2021/05/26 02:14:53;;;;;;;1.67;1.10;;;9.00;99.90;;;;;;5133654;27;20210;-59
2021/05/26 02:17:20;;;;;;;6.35;1.10;;;9.00;99.90;;;;;;5116511;28;20640;-60
2021/05/26 02:19:46;;;;;;;3.03;1.70;;;8.90;99.90;;;;;;5133415;27;20168;-60
2021/05/26 02:22:12;;;;;;;2.58;1.30;;;8.90;99.90;;;;;;5134273;27;20168;-60
2021/05/26 02:24:39;;;;;;;2.45;1.50;;;8.90;99.90;;;;;;5131558;27;20184;-60
2021/05/26 02:27:05;;;;;;;2.10;1.13;;;8.90;99.90;;;;;;5136760;27;20163;-59
2021/05/26 02:29:31;;;;;;;1.75;0.93;;;8.80;99.90;;;;;;5118843;27;20194;-60
2021/05/26 02:31:58;;;;;;;4.40;1.88;;;8.80;99.90;;;;;;5132474;27;20538;-61
2021/05/26 02:34:24;;;;;;;2.00;1.30;;;8.70;99.90;;;;;;5131589;27;20730;-60
2021/05/26 02:36:50;;;;;;;3.22;1.38;;;8.70;99.90;;;;;;5131182;27;20199;-60
2021/05/26 02:39:16;;;;;;;1.88;1.05;;;8.70;99.90;;;;;;5115811;28;20183;-60
2021/05/26 02:41:43;;;;;;;1.77;1.23;;;8.60;99.90;;;;;;5131150;28;20176;-60
2021/05/26 02:44:10;;;;;;;3.55;1.60;;;8.70;99.90;;;;;;5112739;28;20199;-60
2021/05/26 02:46:36;;;;;;;3.50;1.70;;;8.70;99.90;;;;;;5132426;27;20179;-60
2021/05/26 02:49:04;;;;;;;1.80;1.15;;;8.60;99.90;;;;;;5132978;27;20652;-60
2021/05/26 02:51:33;;;;;;;1.83;1.20;;;8.70;99.90;;;;;;5132287;27;20176;-60
2021/05/26 02:54:00;;;;;;;4.65;1.50;;;8.70;99.90;;;;;;5131711;27;20180;-60
2021/05/26 02:56:26;;;;;;;6.25;1.45;;;8.70;99.90;;;;;;5132842;27;20572;-61
2021/05/26 02:58:52;;;;;;;6.30;1.60;;;8.70;99.90;;;;;;5135133;27;20187;-61
2021/05/26 03:01:18;;;;;;;4.65;1.70;;;8.70;99.90;;;;;;5142708;27;20191;-59
2021/05/26 03:03:44;;;;;;;2.08;1.50;;;8.70;99.90;;;;;;5135644;27;20274;-59
2021/05/26 03:06:10;;;;;;;2.58;1.65;;;8.80;99.90;;;;;;5135352;27;20633;-60
2021/05/26 03:08:36;;;;;;;3.97;1.95;;;8.80;99.90;;;;;;5135651;27;20180;-59
2021/05/26 03:11:03;;;;;;;2.38;1.60;;;8.80;99.90;;;;;;5116806;27;20199;-60
2021/05/26 03:13:29;;;;;;;2.63;1.67;;;8.80;99.90;;;;;;5135813;27;20543;-60
2021/05/26 03:15:55;;;;;;;5.63;1.83;;;8.80;99.90;;;;;;5135240;27;20200;-59
2021/05/26 03:18:21;;;;;;;3.05;1.50;;;8.80;99.90;;;;;;5135079;27;20187;-59
2021/05/26 03:20:47;;;;;;;2.55;1.48;;;8.80;99.90;;;;;;5111232;27;20175;-60
2021/05/26 03:23:14;;;;;;;1.73;1.33;;;8.80;99.90;;;;;;5135339;27;20183;-60
2021/05/26 03:25:40;;;;;;;2.33;1.42;;;8.70;99.90;;;;;;5140236;27;20182;-59
2021/05/26 03:28:06;;;;;;;2.25;1.50;;;8.70;99.90;;;;;;5112479;27;20176;-60
2021/05/26 03:30:33;;;;;;;3.67;1.50;;;8.80;99.90;;;;;;5134275;27;20545;-60
2021/05/26 03:33:03;;;;;;;3.25;1.80;;;8.80;99.90;;;;;;5133367;27;20682;-59
2021/05/26 03:35:29;;;;;;;1.70;1.20;;;8.80;99.90;;;;;;5138191;27;20210;-59
2021/05/26 03:37:55;;;;;;;13.15;1.70;;;8.80;99.90;;;;;;5138125;27;20172;-60
2021/05/26 03:40:21;;;;;;;5.40;1.65;;;8.80;99.90;;;;;;5140207;27;20663;-60
2021/05/26 03:42:48;;;;;;;4.70;1.73;;;8.80;99.90;;;;;;5141602;27;20171;-60
2021/05/26 03:45:14;;;;;;;2.58;1.85;;;8.80;99.90;;;;;;5145695;27;20183;-60
2021/05/26 03:47:40;;;;;;;2.63;1.60;;;8.90;99.90;;;;;;5142349;27;20172;-60
2021/05/26 03:50:12;;;;;;;2.40;1.48;;;8.90;99.90;;;;;;5134853;27;20172;-60
2021/05/26 03:52:47;;;;;;;7.03;1.92;;;8.90;99.90;;;;;;5133295;27;20168;-59
2021/05/26 03:55:15;;;;;;;2.33;1.60;;;8.90;99.90;;;;;;5116409;27;20215;-59
2021/05/26 03:57:41;;;;;;;3.75;1.70;;;8.90;99.90;;;;;;5138411;27;20183;-60
2021/05/26 04:00:09;;;;;;;2.20;1.60;;;8.90;99.90;;;;;;5134730;27;20647;-60
2021/05/26 04:02:35;;;;;;;5.18;1.60;;;8.80;99.90;;;;;;5141705;27;20179;-59
2021/05/26 04:05:02;;;;;;;2.33;1.35;;;8.90;99.90;;;;;;5142795;27;20179;-59
2021/05/26 04:07:28;;;;;;;3.70;1.77;;;8.90;99.90;;;;;;5142599;27;20167;-60
2021/05/26 04:09:54;;;;;;;3.78;1.92;;;8.90;99.90;;;;;;5140167;27;20176;-60
2021/05/26 04:12:21;;;;;;;6.00;1.60;;;8.90;99.90;;;;;;5139720;27;20172;-60
2021/05/26 04:14:47;;;;;;;3.85;1.48;;;9.00;99.90;;;;;;5143141;27;20214;-60
2021/05/26 04:17:13;;;;;;;3.60;1.88;;;9.10;99.90;;;;;;5139997;27;20172;-60
2021/05/26 04:19:39;;;;;;;2.90;1.60;;;9.10;99.90;;;;;;5142088;27;20636;-62
2021/05/26 04:22:05;;;;;;;2.50;1.70;;;9.10;99.90;;;;;;5141294;27;20180;-61
2021/05/26 04:24:31;;;;;;;2.70;1.45;;;9.00;99.90;;;;;;5142157;27;20186;-60
2021/05/26 04:26:57;;;;;;;1.67;1.38;;;9.00;99.90;;;;;;5141832;27;20176;-60
2021/05/26 04:29:23;;;;;;;1.75;1.05;;;9.00;99.90;;;;;;5140753;27;20175;-60
2021/05/26 04:31:50;;;;;;;2.70;1.30;;;9.00;99.90;;;;;;5138499;27;20178;-69
2021/05/26 04:34:16;;;;;;;2.95;1.23;;;9.00;99.90;;;;;;5142317;27;20210;-61
2021/05/26 04:36:42;;;;;;;2.53;1.15;;;9.00;99.90;;;;;;5136707;27;20211;-61
2021/05/26 04:39:08;;;;;;;3.78;1.38;;;9.00;99.90;;;;;;5140743;27;20171;-61
2021/05/26 04:41:34;;;;;;;1.70;1.10;;;9.00;99.90;;;;;;5140308;27;20565;-63
2021/05/26 04:44:00;;;;;;;1.77;1.15;;;9.00;99.90;;;;;;5139814;27;20179;-62
2021/05/26 04:46:26;;;;;;;3.38;1.48;;;8.90;99.90;;;;;;5107949;27;20180;-62
2021/05/26 04:48:52;;;;;;;1.92;1.27;;;8.90;99.90;;;;;;5141660;27;20175;-62
2021/05/26 04:51:19;;;;;;;2.13;1.23;;;8.90;99.90;;;;;;5142454;27;20628;-61
2021/05/26 04:53:45;;;;;;;1.98;1.30;;;8.90;99.90;;;;;;5105151;27;20175;-61
2021/05/26 04:56:11;;;;;;;1.70;1.23;;;8.90;99.90;;;;;;5141119;27;20187;-61
2021/05/26 04:58:37;;;;;;;1.95;1.40;;;9.00;99.90;;;;;;5142143;27;20176;-61
2021/05/26 05:01:03;;;;;;;3.00;1.35;;;9.10;99.90;;;;;;5141053;27;20191;-61
2021/05/26 05:03:29;;;;;;;2.08;1.30;;;9.00;99.90;;;;;;5143361;27;20176;-60
2021/05/26 05:05:55;;;;;;;1.95;1.20;;;9.10;99.90;;;;;;5140855;27;20637;-60
2021/05/26 05:08:21;;;;;;;4.38;1.65;;;9.00;99.90;;;;;;5141332;27;20177;-63
2021/05/26 05:10:47;;;;;;;1.65;1.17;;;9.00;99.90;;;;;;5143942;27;20681;-61
2021/05/26 05:13:13;;;;;;;2.25;1.35;;;9.10;99.90;;;;;;5140693;27;20183;-62
2021/05/26 05:15:39;;;;;;;3.30;1.58;;;9.10;99.90;;;;;;5140368;27;20220;-61
2021/05/26 05:18:05;;;;;;;4.43;1.27;;;9.20;99.90;;;;;;5138647;27;20183;-61
2021/05/26 05:20:31;;;;;;;4.78;1.52;;;9.10;99.90;;;;;;5141809;27;20176;-61
2021/05/26 05:22:58;;;;;;;4.35;1.40;;;9.20;99.90;;;;;;5141621;27;20168;-62
2021/05/26 05:25:24;;;;;;;1.77;1.17;;;9.10;99.90;;;;;;5106833;27;20191;-62
2021/05/26 05:27:50;;;;;;;1.55;1.30;;;9.10;99.90;;;;;;5143242;27;20164;-62
2021/05/26 05:30:16;;;;;;;2.20;1.30;;;9.20;99.90;;;;;;5139843;27;20178;-63
2021/05/26 05:32:42;;;;;;;1.55;1.30;;;9.20;99.90;;;;;;5143179;27;20175;-62
2021/05/26 05:35:09;;;;;;;1.83;1.10;;;9.20;99.90;;;;;;5141753;27;20200;-62
2021/05/26 05:37:35;;;;;;;2.33;1.10;;;9.20;99.90;;;;;;5146500;27;20564;-63
2021/05/26 05:40:01;;;;;;;3.50;1.10;;;9.20;99.90;;;;;;5137468;27;20168;-64
2021/05/26 05:42:28;;;;;;;1.90;1.10;;;9.20;99.90;;;;;;5134385;27;20183;-64
2021/05/26 05:44:54;;;;;;;3.75;1.10;;;9.20;99.90;;;;;;5141529;27;20179;-63
2021/05/26 05:47:21;;;;;;;1.83;1.30;;;9.30;99.90;;;;;;5112361;27;20184;-63
2021/05/26 05:49:47;;;;;;;1.40;1.15;;;9.30;99.90;;;;;;5136050;27;20174;-63
2021/05/26 05:52:13;;;;;;;1.33;1.00;;;9.30;99.90;;;;;;5131891;27;20188;-63
2021/05/26 05:54:39;;;;;;;2.47;1.33;;;9.30;99.90;;;;;;5130463;27;20184;-64
2021/05/26 05:57:06;;;;;;;0.85;0.80;;;9.30;99.90;;;;;;5108621;27;20667;-64
2021/05/26 05:59:32;;;;;;;2.90;1.00;;;9.40;99.90;;;;;;5139248;27;20557;-64
2021/05/26 06:01:58;;;;;;;2.33;1.10;;;9.50;99.90;;;;;;5140457;27;20188;-65
2021/05/26 06:04:24;;;;;;;3.13;1.00;;;9.50;99.90;;;;;;5144800;27;20628;-64
2021/05/26 06:06:50;;;;;;;1.08;0.80;;;9.50;99.90;;;;;;5138406;27;20186;-65
2021/05/26 06:09:16;;;;;;;1.35;0.93;;;9.50;99.90;;;;;;5138055;27;20624;-64
2021/05/26 06:11:42;;;;;;;1.75;0.90;;;9.70;99.90;;;;;;5139146;27;20175;-64
2021/05/26 06:14:09;;;;;;;1.23;0.98;;;9.70;99.90;;;;;;5142630;27;20212;-64
2021/05/26 06:16:35;;;;;;;1.08;0.85;;;9.70;99.90;;;;;;5140639;27;20208;-64
2021/05/26 06:19:02;;;;;;;0.80;0.70;;;9.80;99.90;;;;;;5140872;27;20168;-62
2021/05/26 06:21:28;;;;;;;1.25;0.70;;;9.80;99.90;;;;;;5136268;27;20191;-64
2021/05/26 06:23:54;;;;;;;1.05;0.50;;;9.70;99.90;;;;;;5147089;27;20163;-64
2021/05/26 06:26:20;;;;;;;1.88;0.80;;;9.60;99.90;;;;;;5137087;27;20175;-64
2021/05/26 06:28:46;;;;;;;1.48;0.60;;;9.60;99.90;;;;;;5141479;27;20530;-64
2021/05/26 06:31:12;;;;;;;1.10;0.52;;;9.50;99.90;;;;;;5138038;27;20266;-64
2021/05/26 06:33:42;;;;;;;1.48;0.52;;;9.50;99.90;;;;;;5148586;27;20589;-63
2021/05/26 06:36:11;;;;;;;1.52;0.60;;;9.60;99.90;;;;;;5142861;27;20200;-63
2021/05/26 06:38:38;;;;;;;0.90;0.60;;;9.80;99.90;;;;;;5145078;27;20174;-65
2021/05/26 06:41:04;;;;;;;2.83;0.50;;;9.80;99.90;;;;;;5138802;27;20175;-63
2021/05/26 06:43:30;;;;;;;1.67;0.50;;;9.80;99.90;;;;;;5121319;27;20168;-63
2021/05/26 06:45:56;;;;;;;2.45;0.60;;;9.90;99.90;;;;;;5148737;27;20669;-64
2021/05/26 06:48:23;;;;;;;1.40;0.60;;;10.10;99.90;;;;;;5140945;27;20176;-63
2021/05/26 06:50:49;;;;;;;6.32;1.20;;;10.10;99.90;;;;;;5135932;27;20179;-63
2021/05/26 06:53:15;;;;;;;3.03;0.80;;;10.20;99.90;;;;;;5137290;27;20175;-63
2021/05/26 06:55:41;;;;;;;1.70;1.58;;;10.30;99.90;;;;;;5139331;27;20213;-63
2021/05/26 06:58:07;;;;;;;1.55;0.70;;;10.50;99.90;;;;;;5144338;27;20663;-61
2021/05/26 07:00:34;;;;;;;0.63;0.50;;;10.60;99.90;;;;;;5142102;27;20200;-63
2021/05/26 07:03:01;;;;;;;5.30;0.85;;;10.70;99.90;;;;;;5139850;27;20172;-62
2021/05/26 07:05:27;;;;;;;2.95;1.00;;;10.70;99.90;;;;;;5139126;27;20175;-63
2021/05/26 07:07:54;;;;;;;4.25;0.55;;;10.70;99.90;;;;;;5141091;27;20183;-63
2021/05/26 07:10:20;;;;;;;2.00;0.90;;;10.80;99.90;;;;;;5140868;27;20170;-64
2021/05/26 07:12:47;;;;;;;0.75;0.75;;;10.80;99.90;;;;;;5121003;27;20548;-64
2021/05/26 07:15:14;;;;;;;1.10;0.90;;;10.80;99.90;;;;;;5122875;27;20180;-63
2021/05/26 07:17:40;;;;;;;2.50;0.90;;;10.80;99.90;;;;;;5137899;27;20188;-64
2021/05/26 07:20:07;;;;;;;5.32;1.30;;;10.80;99.90;;;;;;5112867;27;20180;-63
2021/05/26 07:22:33;;;;;;;2.58;1.10;;;11.00;99.90;;;;;;5096613;27;20544;-62
2021/05/26 07:24:59;;;;;;;0.90;0.80;;;11.10;99.90;;;;;;5137606;27;20180;-66
2021/05/26 07:27:25;;;;;;;2.03;0.90;;;11.30;99.90;;;;;;5140700;27;20519;-62
2021/05/26 07:29:51;;;;;;;4.50;1.02;;;11.40;99.90;;;;;;5141719;27;20183;-62
2021/05/26 07:32:17;;;;;;;4.18;0.93;;;11.30;99.90;;;;;;5145498;27;20638;-62
2021/05/26 07:34:43;;;;;;;1.42;0.75;;;11.30;99.90;;;;;;5145294;27;20219;-62
2021/05/26 07:37:09;;;;;;;1.52;0.88;;;11.20;99.90;;;;;;5135657;27;20569;-64
2021/05/26 07:39:36;;;;;;;12.30;1.80;;;11.30;99.90;;;;;;5138405;27;20184;-62
2021/05/26 07:42:03;;;;;;;1.88;0.90;;;11.40;99.90;;;;;;5139217;27;20180;-63
2021/05/26 07:44:29;;;;;;;1.45;1.08;;;11.60;99.90;;;;;;5148259;27;20183;-63
2021/05/26 07:46:55;;;;;;;9.63;1.30;;;11.90;99.90;;;;;;5145884;27;20197;-62
2021/05/26 07:49:22;;;;;;;1.00;0.90;;;12.10;99.90;;;;;;5139139;27;20176;-62
2021/05/26 07:51:51;;;;;;;16.15;2.13;;;12.00;99.90;;;;;;5141680;27;20176;-62
2021/05/26 07:54:24;;;;;;;2.22;1.00;;;11.90;99.90;;;;;;5119820;27;20195;-63
2021/05/26 07:56:50;;;;;;;2.67;0.80;;;12.10;99.90;;;;;;5123946;27;20200;-63
2021/05/26 07:59:16;;;;;;;11.50;1.33;;;12.30;99.90;;;;;;5144217;27;20571;-62
2021/05/26 08:01:43;;;;;;;6.63;1.48;;;12.30;99.90;;;;;;5136714;27;20186;-62
2021/05/26 08:04:10;;;;;;;29.27;2.60;;;12.30;99.90;;;;;;5141548;27;20199;-62
2021/05/26 08:06:36;;;;;;;8.32;2.42;;;12.40;99.90;;;;;;5141542;27;20194;-62
2021/05/26 08:09:03;;;;;;;1.08;0.65;;;12.30;99.90;;;;;;5136573;27;20198;-62
2021/05/26 08:11:29;;;;;;;7.65;1.27;;;12.00;99.90;;;;;;5116262;27;20195;-61
2021/05/26 08:13:57;;;;;;;1.40;0.80;;;11.70;99.90;;;;;;5145527;27;20187;-63
2021/05/26 08:16:24;;;;;;;55.15;4.25;;;11.60;99.90;;;;;;5143859;27;20203;-62
2021/05/26 08:18:50;;;;;;;7.93;1.38;;;11.60;99.90;;;;;;5140100;27;20164;-63
2021/05/26 08:21:16;;;;;;;0.52;0.52;;;11.80;99.90;;;;;;5121566;27;20171;-62
2021/05/26 08:23:42;;;;;;;1.20;0.70;;;12.00;99.90;;;;;;5140399;27;20172;-63
2021/05/26 08:26:12;;;;;;;3.00;0.80;;;12.00;99.90;;;;;;5144164;27;20654;-63
2021/05/26 08:28:38;;;;;;;2.05;0.70;;;12.10;99.90;;;;;;5138061;27;20175;-62
2021/05/26 08:31:04;;;;;;;7.18;1.23;;;12.50;99.90;;;;;;5142288;27;20190;-63
2021/05/26 08:33:30;;;;;;;1.30;0.70;;;12.80;99.90;;;;;;5145680;27;20215;-63
2021/05/26 08:35:56;;;;;;;1.30;0.57;;;12.90;99.90;;;;;;5118310;27;20210;-63
2021/05/26 08:38:22;;;;;;;0.60;0.55;;;13.00;99.90;;;;;;5135760;27;20176;-63
2021/05/26 08:40:49;;;;;;;0.60;0.50;;;12.80;99.90;;;;;;5142599;27;20175;-63
2021/05/26 08:43:16;;;;;;;0.50;0.40;;;12.70;99.90;;;;;;5118997;27;20159;-63
2021/05/26 08:45:42;;;;;;;0.50;0.50;;;12.40;99.90;;;;;;5119457;27;20180;-63
2021/05/26 08:48:09;;;;;;;7.28;0.60;;;12.30;99.90;;;;;;5112345;27;20184;-62
2021/05/26 08:50:35;;;;;;;1.02;0.52;;;12.20;99.90;;;;;;5138334;27;20183;-63
2021/05/26 08:53:02;;;;;;;1.92;0.50;;;12.10;99.90;;;;;;5141172;27;20168;-63
2021/05/26 08:55:28;;;;;;;0.82;0.50;;;12.00;99.90;;;;;;5106627;27;20171;-63
2021/05/26 08:57:59;;;;;;;1.45;0.73;;;11.90;99.90;;;;;;5103071;27;20176;-63
2021/05/26 09:00:26;;;;;;;1.48;0.90;;;12.00;99.90;;;;;;5092271;27;20661;-61
2021/05/26 09:02:52;;;;;;;3.72;0.60;;;12.10;99.90;;;;;;5143446;27;20183;-61
2021/05/26 09:05:25;;;;;;;3.75;0.65;;;12.20;99.90;;;;;;5145348;27;20229;-62
2021/05/26 09:07:52;;;;;;;1.63;0.93;;;12.50;99.90;;;;;;5141335;27;20180;-63
2021/05/26 09:10:18;;;;;;;0.95;0.50;;;13.30;99.90;;;;;;5137206;27;20187;-62
2021/05/26 09:12:45;;;;;;;3.10;0.80;;;14.40;99.90;;;;;;5144093;27;20638;-64
2021/05/26 09:15:20;;;;;;;42.85;3.88;;;14.70;99.90;;;;;;5142898;27;20172;-64
2021/05/26 09:17:48;;;;;;;0.70;0.60;;;14.50;99.90;;;;;;5142305;27;20658;-63
2021/05/26 09:20:22;;;;;;;4.05;0.55;;;14.30;99.90;;;;;;5143320;27;20579;-62
2021/05/26 09:23:00;;;;;;;1.75;0.47;;;13.60;99.90;;;;;;5137942;27;20160;-62
2021/05/26 09:25:27;;;;;;;1.40;0.50;;;13.40;99.90;;;;;;5134221;27;20168;-63
2021/05/26 09:28:16;;;;;;;1.15;0.50;;;12.90;99.90;;;;;;5122964;27;20193;-63
2021/05/26 09:30:43;;;;;;;6.45;1.00;;;12.70;99.90;;;;;;5135318;27;20547;-62
2021/05/26 09:33:22;;;;;;;1.55;1.00;;;12.30;99.90;;;;;;5145543;27;20596;-63
2021/05/26 09:35:50;;;;;;;5.97;0.50;;;12.00;99.90;;;;;;5145882;27;20156;-63
2021/05/26 09:38:16;;;;;;;1.77;0.80;;;12.10;99.90;;;;;;5118006;27;20198;-63
2021/05/26 09:40:42;;;;;;;2.10;0.70;;;12.00;99.90;;;;;;5113077;27;20180;-63
2021/05/26 09:43:08;;;;;;;3.40;0.60;;;12.00;99.90;;;;;;5138286;27;20541;-62
2021/05/26 09:45:34;;;;;;;1.88;0.70;;;12.00;99.90;;;;;;5144773;27;20180;-63
2021/05/26 09:48:01;;;;;;;5.38;0.77;;;12.00;99.90;;;;;;5104295;27;20179;-63
2021/05/26 09:50:34;;;;;;;6.75;0.80;;;12.00;99.90;;;;;;5115883;27;20171;-62
2021/05/26 09:53:06;;;;;;;1.45;0.80;;;12.10;99.90;;;;;;5136885;27;20659;-62
2021/05/26 09:55:35;;;;;;;1.90;0.70;;;12.20;99.90;;;;;;5130552;27;20183;-63
2021/05/26 09:58:01;;;;;;;2.13;0.80;;;12.10;99.90;;;;;;5115468;27;20179;-63
2021/05/26 10:00:27;;;;;;;0.63;0.60;;;12.10;99.90;;;;;;5128520;27;20199;-63
2021/05/26 10:02:53;;;;;;;14.63;1.00;;;12.00;99.90;;;;;;5111586;27;20187;-62
2021/05/26 10:05:20;;;;;;;22.42;1.73;;;12.00;99.90;;;;;;5142079;27;20168;-63
2021/05/26 10:07:53;;;;;;;4.18;0.90;;;11.90;99.90;;;;;;5136655;27;20546;-62
2021/05/26 10:10:21;;;;;;;0.65;0.60;;;11.80;99.90;;;;;;5136070;27;20187;-63
2021/05/26 10:12:53;;;;;;;0.70;0.70;;;11.80;99.90;;;;;;5142882;27;20654;-63
2021/05/26 10:15:20;;;;;;;1.95;0.73;;;11.70;99.90;;;;;;5137038;27;20652;-64
2021/05/26 10:17:51;;;;;;;0.50;0.50;;;11.50;99.90;;;;;;5141736;27;20207;-63
2021/05/26 10:20:19;;;;;;;2.70;0.73;;;11.40;99.90;;;;;;5142004;27;20168;-62
2021/05/26 10:22:45;;;;;;;1.95;0.80;;;11.50;99.90;;;;;;5117732;28;20554;-62
2021/05/26 10:25:12;;;;;;;4.10;1.20;;;11.70;99.90;;;;;;5117620;28;20168;-62
2021/05/26 10:27:54;;;;;;;2.63;0.80;;;11.80;99.90;;;;;;5139112;27;20168;-62
2021/05/26 10:30:24;;;;;;;1.02;0.60;;;11.80;99.90;;;;;;5120547;27;20624;-62
2021/05/26 10:33:00;;;;;;;0.63;0.63;;;11.80;99.90;;;;;;5127070;27;20183;-62
2021/05/26 10:35:30;;;;;;;1.42;1.05;;;11.90;99.90;;;;;;5132627;27;20627;-61
2021/05/26 10:38:07;;;;;;;1.13;0.73;;;12.00;99.90;;;;;;5107558;27;20223;-61
2021/05/26 10:40:38;;;;;;;3.22;0.88;;;12.10;99.90;;;;;;5112454;27;20775;-61
2021/05/26 10:43:17;;;;;;;1.73;0.80;;;12.20;99.90;;;;;;5129906;27;20663;-62
2021/05/26 10:45:47;;;;;;;0.80;0.73;;;12.30;99.90;;;;;;5113174;27;20514;-62
2021/05/26 10:48:13;;;;;;;2.58;0.63;;;12.30;99.90;;;;;;5133905;27;20187;-63
2021/05/26 10:50:48;;;;;;;1.13;0.80;;;12.30;99.90;;;;;;5135383;27;20179;-62
2021/05/26 10:53:16;;;;;;;1.40;0.80;;;12.40;99.90;;;;;;5135203;27;20184;-63
2021/05/26 10:55:52;;;;;;;1.02;0.70;;;12.50;99.90;;;;;;5106270;27;20180;-62
2021/05/26 10:58:25;;;;;;;2.35;0.80;;;12.50;99.90;;;;;;5115280;27;20191;-62
2021/05/26 11:01:00;;;;;;;6.25;0.85;;;12.50;99.90;;;;;;5139003;27;20687;-62
2021/05/26 11:03:30;;;;;;;6.05;0.80;;;12.60;99.90;;;;;;5140915;27;20179;-63
2021/05/26 11:06:19;;;;;;;0.85;0.63;;;12.60;99.90;;;;;;5137544;27;20661;-63
2021/05/26 11:08:52;;;;;;;2.60;0.65;;;12.60;99.90;;;;;;5125405;27;20188;-63
2021/05/26 11:11:22;;;;;;;6.47;1.25;;;12.70;99.90;;;;;;5116644;27;20163;-64
2021/05/26 11:14:06;;;;;;;2.20;1.00;;;12.70;99.90;;;;;;5136388;27;20172;-63
2021/05/26 11:16:41;;;;;;;1.35;0.77;;;12.90;99.90;;;;;;5137382;27;20210;-63
2021/05/26 11:19:14;;;;;;;0.77;0.70;;;12.90;99.90;;;;;;5138329;27;20179;-63
2021/05/26 11:21:42;;;;;;;1.73;0.85;;;13.30;99.90;;;;;;5118064;27;20164;-64
2021/05/26 11:24:08;;;;;;;3.75;0.70;;;13.60;99.90;;;;;;5143777;27;20195;-63
2021/05/26 11:26:35;;;;;;;1.85;0.70;;;13.50;99.90;;;;;;5121871;27;20184;-64
2021/05/26 11:29:05;;;;;;;4.53;0.70;;;13.70;99.90;;;;;;5138138;27;20182;-64
2021/05/26 11:31:31;;;;;;;0.85;0.55;;;13.80;99.90;;;;;;5105740;27;20211;-63
2021/05/26 11:33:58;;;;;;;0.80;0.80;;;13.90;99.90;;;;;;5140693;27;20220;-64
2021/05/26 11:36:46;;;;;;;81.45;3.42;;;13.90;99.90;;;;;;5144143;27;20195;-63
2021/05/26 11:39:15;;;;;;;0.80;0.70;;;14.00;99.90;;;;;;5140721;27;20172;-64
2021/05/26 11:41:41;;;;;;;0.80;0.68;;;13.90;99.90;;;;;;5137424;27;20172;-64
2021/05/26 11:44:08;;;;;;;5.38;0.82;;;14.20;99.90;;;;;;5143483;27;20184;-64
2021/05/26 11:46:34;;;;;;;1.20;0.60;;;13.90;99.90;;;;;;5142504;27;20191;-63
2021/05/26 11:49:13;;;;;;;1.98;0.45;;;14.00;99.90;;;;;;5139627;27;20198;-64
2021/05/26 11:51:39;;;;;;;45.78;2.65;;;14.00;99.90;;;;;;5138168;27;20186;-64
2021/05/26 11:54:05;;;;;;;1.25;0.50;;;14.00;99.90;;;;;;5138100;27;20183;-64
2021/05/26 11:56:35;;;;;;;0.50;0.50;;;13.70;99.90;;;;;;5139853;27;20195;-63
2021/05/26 11:59:01;;;;;;;0.60;0.57;;;13.40;99.90;;;;;;5140096;27;20179;-64
2021/05/26 12:01:30;;;;;;;1.35;0.80;;;12.90;99.90;;;;;;5142422;27;20543;-63
2021/05/26 12:03:57;;;;;;;12.48;1.60;;;12.70;99.90;;;;;;5141122;27;20184;-63
2021/05/26 12:06:23;;;;;;;6.20;1.25;;;12.70;99.90;;;;;;5133291;27;20199;-63
2021/05/26 12:08:50;;;;;;;4.40;1.10;;;12.50;99.90;;;;;;5112901;27;20180;-63
2021/05/26 12:11:21;;;;;;;6.57;2.10;;;12.10;99.90;;;;;;5138301;27;20190;-63
2021/05/26 12:13:48;;;;;;;3.65;0.93;;;12.10;99.90;;;;;;5116190;27;20187;-61
2021/05/26 12:16:16;;;;;;;3.65;0.98;;;12.10;99.90;;;;;;5135010;27;20180;-63
2021/05/26 12:18:49;;;;;;;23.65;2.35;;;11.90;99.90;;;;;;5123277;27;20179;-63
2021/05/26 12:21:15;;;;;;;5.53;1.05;;;11.70;99.90;;;;;;5140602;27;20651;-63
2021/05/26 12:23:47;;;;;;;2.72;0.93;;;11.60;99.90;;;;;;5136644;27;20168;-63
2021/05/26 12:26:24;;;;;;;3.13;0.90;;;11.40;99.90;;;;;;5146751;27;20661;-62
2021/05/26 12:28:51;;;;;;;1.42;0.80;;;11.30;99.90;;;;;;5139963;27;20190;-62
2021/05/26 12:31:17;;;;;;;3.42;1.35;;;11.20;99.90;;;;;;5145373;27;20167;-62
2021/05/26 12:33:51;;;;;;;1.08;0.73;;;11.20;99.90;;;;;;5140127;27;20221;-63
2021/05/26 12:36:18;;;;;;;1.45;0.70;;;11.20;99.90;;;;;;5114476;27;20160;-62
2021/05/26 12:38:44;;;;;;;1.25;0.93;;;11.20;99.90;;;;;;5143745;27;20636;-64
2021/05/26 12:41:20;;;;;;;4.25;0.95;;;11.00;99.90;;;;;;5136972;27;20182;-62
2021/05/26 12:43:46;;;;;;;2.90;1.13;;;11.00;99.90;;;;;;5137129;27;20187;-63
2021/05/26 12:46:52;;;;;;;2.72;1.23;;;11.00;99.90;;;;;;5137181;27;20192;-62
2021/05/26 12:49:28;;;;;;;2.47;1.00;;;11.00;99.90;;;;;;5137281;27;20168;-61
2021/05/26 12:51:54;;;;;;;2.28;1.05;;;11.20;99.90;;;;;;5136511;27;20183;-63